Time;durP1;ratioP1;P1;durP2;ratioP2;P2;SDS_P1;SDS_P2;PMS_P1;PMS_P2;Temp;Humidity;BMP_temperature;BMP_pressure;BME280_temperature;BME280_humidity;BME280_pressure;Samples;Min_cycle;Max_cycle;Signal;HPM_P1;HPM_P2
2022/02/10 00:16:03;;;;;;;;;16.50;11.00;;;;;21.24;35.57;101849.22;5029190;28;51121;-52
2022/02/10 00:20:59;;;;;;;;;13.25;12.50;;;;;21.20;35.45;101847.94;5036429;28;51382;-47
2022/02/10 00:34:28;;;;;;;;;14.25;13.25;;;;;21.11;35.83;101848.28;5035546;28;51554;-51
2022/02/10 00:42:26;;;;;;;;;12.50;11.50;;;;;21.06;36.05;101851.66;5023661;28;51516;-48
2022/02/10 00:44:52;;;;;;;;;13.75;13.25;;;;;21.06;36.08;101850.81;5035750;28;51093;-48
2022/02/10 00:47:17;;;;;;;;;13.25;12.75;;;;;21.02;36.06;101845.69;5036599;28;51144;-47
2022/02/10 00:49:43;;;;;;;;;11.75;11.75;;;;;21.01;35.94;101849.50;5036469;28;51187;-50
2022/02/10 00:52:08;;;;;;;;;14.50;11.75;;;;;21.01;35.80;101848.66;5035565;28;51743;-50
2022/02/10 00:54:37;;;;;;;;;15.00;12.75;;;;;21.00;35.61;101855.22;5035258;28;51048;-50
2022/02/10 00:57:07;;;;;;;;;14.00;13.50;;;;;20.98;35.72;101854.56;5036216;28;51147;-48
2022/02/10 01:31:48;;;;;;;;;9.50;9.50;;;;;20.80;36.29;101865.25;5035989;28;51136;-49
2022/02/10 01:34:13;;;;;;;;;13.00;11.00;;;;;20.79;35.96;101866.28;5035418;28;52107;-52
2022/02/10 01:36:39;;;;;;;;;15.00;12.75;;;;;20.77;35.84;101863.75;5035579;28;51041;-48
2022/02/10 01:39:06;;;;;;;;;13.75;12.00;;;;;20.77;35.81;101876.66;5033240;28;51217;-50
2022/02/10 01:58:08;;;;;;;;;13.25;11.25;;;;;20.67;36.27;101883.34;5034992;28;51403;-48
2022/02/10 02:05:53;;;;;;;;;13.25;10.50;;;;;20.65;36.35;101873.59;5029877;28;51148;-51
2022/02/10 02:08:26;;;;;;;;;13.75;10.25;;;;;20.63;36.62;101870.16;5034725;28;51058;-49
2022/02/10 02:10:51;;;;;;;;;11.75;10.25;;;;;20.61;36.46;101864.88;5034916;28;51179;-49
2022/02/10 02:13:16;;;;;;;;;12.00;12.00;;;;;20.61;35.90;101866.78;5034871;28;51074;-45
2022/02/10 02:15:42;;;;;;;;;11.50;9.50;;;;;20.59;36.50;101869.72;5035114;28;52045;-47
2022/02/10 02:18:07;;;;;;;;;9.75;9.00;;;;;20.59;36.23;101866.13;5034822;28;51140;-50
2022/02/10 02:20:32;;;;;;;;;12.75;12.75;;;;;20.58;36.55;101872.69;5035183;28;51138;-50
2022/02/10 02:22:58;;;;;;;;;13.75;11.50;;;;;20.57;36.44;101869.09;5034858;28;51016;-48
2022/02/10 02:25:23;;;;;;;;;13.00;11.75;;;;;20.56;36.20;101881.16;5034428;28;51745;-47
2022/02/10 02:27:52;;;;;;;;;14.75;9.25;;;;;20.55;36.13;101878.59;5035063;28;51200;-51
2022/02/10 02:30:31;;;;;;;;;13.00;12.25;;;;;20.54;36.45;101876.91;5033608;28;51050;-53
2022/02/10 03:05:45;;;;;;;;;11.50;8.50;;;;;20.41;36.50;101852.78;5038272;28;51146;-51
2022/02/10 03:08:17;;;;;;;;;9.50;9.50;;;;;20.39;36.51;101850.25;5037506;28;51338;-50
2022/02/10 03:13:14;;;;;;;;;11.50;9.75;;;;;20.37;36.56;101849.59;5037626;28;51117;-50
2022/02/10 03:16:07;;;;;;;;;9.75;9.25;;;;;20.37;36.46;101848.75;5038140;28;51081;-50
2022/02/10 03:18:39;;;;;;;;;12.50;12.50;;;;;20.36;36.64;101853.41;5029461;28;53487;-49
2022/02/10 03:21:30;;;;;;;;;9.50;8.25;;;;;20.35;36.52;101853.59;5034927;28;51968;-49
2022/02/10 04:30:46;;;;;;;;;8.00;8.00;;;;;20.14;36.57;101890.22;5037121;28;51287;-50
2022/02/10 04:55:29;;;;;;;;;8.00;8.00;;;;;20.07;36.94;101920.38;5035483;28;51139;-51
2022/02/10 05:06:36;;;;;;;;;6.00;6.00;;;;;20.05;36.53;101924.38;5036112;28;50965;-51
2022/02/10 05:16:47;;;;;;;;;10.25;7.25;;;;;20.00;36.87;101916.69;5035954;28;51559;-50
2022/02/10 05:37:47;;;;;;;;;7.75;6.00;;;;;19.95;36.74;101915.59;5029058;28;51606;-52
2022/02/10 05:40:19;;;;;;;;;7.25;6.25;;;;;19.94;36.90;101919.38;5035816;28;51423;-50
2022/02/10 05:45:49;;;;;;;;;9.00;8.50;;;;;19.94;36.75;101927.63;4980551;28;51179;-49
2022/02/10 05:56:04;;;;;;;;;8.25;7.00;;;;;19.91;36.65;101948.13;5035442;28;51277;-51
2022/02/10 05:58:40;;;;;;;;;6.25;6.00;;;;;19.91;36.70;101958.28;5035045;28;51116;-51
2022/02/10 06:52:36;;;;;;;;;10.00;8.25;;;;;19.79;35.67;101964.25;5033928;28;51642;-46
2022/02/10 06:55:15;;;;;;;;;8.50;8.50;;;;;19.91;35.80;101959.13;5034113;28;51432;-47
2022/02/10 07:03:34;;;;;;;;;7.25;5.25;;;;;20.26;36.26;101981.34;5030727;28;52013;-46
2022/02/10 07:11:20;;;;;;;;;8.75;8.75;;;;;20.52;36.13;101992.66;5032021;28;51094;-48
2022/02/10 07:57:02;;;;;;;;;10.00;10.00;;;;;21.21;35.97;101990.16;5034760;28;51133;-51
2022/02/10 09:01:43;;;;;;;;;12.25;10.50;;;;;20.33;35.84;102054.69;5034997;28;51846;-49
2022/02/10 09:06:57;;;;;;;;;11.75;9.75;;;;;20.28;36.08;102043.38;5035136;28;51065;-53
2022/02/10 09:58:11;;;;;;;;;13.00;9.00;;;;;20.00;36.22;102067.13;5011141;28;51133;-47
2022/02/10 10:03:29;;;;;;;;;15.00;10.00;;;;;20.03;36.33;102075.88;5007295;28;51364;-44
2022/02/10 10:06:14;;;;;;;;;10.75;8.25;;;;;20.10;36.18;102078.69;5009790;28;51803;-45
2022/02/10 10:08:59;;;;;;;;;8.00;7.50;;;;;20.21;36.39;102083.72;5011845;28;51108;-49
2022/02/10 10:14:28;;;;;;;;;8.50;7.50;;;;;20.45;36.15;102083.44;5031890;28;51438;-47
2022/02/10 10:18:02;;;;;;;;;7.50;6.00;;;;;20.60;35.85;102079.81;5030074;28;52110;-50
2022/02/10 10:22:52;;;;;;;;;6.25;6.25;;;;;20.84;35.54;102078.59;5031716;28;51228;-50
2022/02/10 10:53:35;;;;;;;;;7.00;5.25;;;;;21.59;35.11;102103.75;5027482;28;51131;-47
2022/02/10 10:58:38;;;;;;;;;6.75;6.50;;;;;21.58;35.26;102098.44;5031193;28;52576;-49
2022/02/10 11:36:46;;;;;;;;;10.75;10.75;;;;;21.80;35.00;102067.00;5034189;28;51198;-50
2022/02/10 11:45:32;;;;;;;;;8.00;7.00;;;;;21.86;35.51;102060.66;5034041;28;51055;-51
2022/02/10 14:17:04;;;;;;;;;3.50;3.50;;;;;22.51;34.37;101930.59;5032039;28;51124;-44
2022/02/10 14:27:26;;;;;;;;;3.75;2.00;;;;;22.68;34.18;101921.69;5030703;28;52478;-48
2022/02/10 14:29:52;;;;;;;;;6.50;4.00;;;;;22.68;34.37;101924.47;5032452;28;51049;-47
2022/02/10 14:32:20;;;;;;;;;3.50;3.50;;;;;22.68;34.53;101912.56;5032976;28;51239;-49
2022/02/10 14:34:49;;;;;;;;;4.25;3.75;;;;;22.66;34.55;101918.31;5030074;28;52189;-47
2022/02/10 14:40:08;;;;;;;;;3.75;2.50;;;;;22.62;34.25;101927.25;5029968;28;50986;-45
2022/02/10 14:43:32;;;;;;;;;4.00;4.00;;;;;22.59;34.13;101911.91;5032343;28;51231;-51
2022/02/10 15:55:16;;;;;;;;;5.00;4.50;;;;;22.67;34.28;101889.63;5031823;28;51185;-49
2022/02/10 16:14:36;;;;;;;;;5.00;5.00;;;;;22.60;34.27;101880.47;5033008;28;51663;-44
2022/02/10 16:19:06;;;;;;;;;4.00;4.00;;;;;22.57;34.08;101866.25;5029819;28;51929;-47
2022/02/10 16:24:27;;;;;;;;;2.75;2.25;;;;;22.61;34.33;101867.50;4998261;28;51233;-52
2022/02/10 16:26:55;;;;;;;;;3.25;3.25;;;;;22.66;34.14;101859.44;5028143;28;51378;-49
2022/02/10 16:29:23;;;;;;;;;6.00;3.50;;;;;22.73;33.96;101865.84;5014455;28;51448;-47
2022/02/10 16:31:48;;;;;;;;;3.00;3.00;;;;;22.75;34.36;101870.06;5032589;28;51342;-46
2022/02/10 16:34:14;;;;;;;;;4.75;4.25;;;;;22.75;34.50;101870.06;5032311;28;51084;-50
2022/02/10 16:36:40;;;;;;;;;4.25;3.00;;;;;22.75;33.97;101870.06;5029609;28;51100;-49
2022/02/10 16:39:05;;;;;;;;;4.50;2.75;;;;;22.75;34.24;101867.31;5028990;28;51154;-47
2022/02/10 16:41:31;;;;;;;;;4.50;4.50;;;;;22.74;34.56;101856.50;5031277;28;51275;-49
2022/02/10 16:43:57;;;;;;;;;4.00;4.00;;;;;22.73;34.53;101863.94;5033123;28;51636;-46
2022/02/10 16:46:22;;;;;;;;;4.75;4.00;;;;;22.72;34.17;101869.66;5030581;28;51141;-49
2022/02/10 16:48:48;;;;;;;;;5.00;3.00;;;;;22.71;34.71;101868.78;5033191;28;51149;-47
2022/02/10 16:51:14;;;;;;;;;3.75;3.25;;;;;22.71;34.08;101873.47;5030439;28;51086;-45
2022/02/10 16:53:43;;;;;;;;;3.50;3.50;;;;;22.70;33.93;101877.28;5041793;28;52062;-46
2022/02/10 16:56:14;;;;;;;;;3.00;3.00;;;;;22.68;34.15;101873.91;5032285;28;51957;-46
2022/02/10 16:58:57;;;;;;;;;8.75;4.50;;;;;22.68;34.48;101871.13;5032763;28;51399;-49
2022/02/10 17:20:14;;;;;;;;;4.25;3.25;;;;;22.80;34.15;101891.53;5032544;28;51466;-47
2022/02/10 17:25:29;;;;;;;;;5.25;4.50;;;;;22.73;34.72;101899.84;5030704;28;51140;-51
2022/02/10 17:27:59;;;;;;;;;9.00;4.00;;;;;22.71;34.71;101910.22;5030928;28;52020;-46
2022/02/10 17:54:02;;;;;;;;;4.50;4.00;;;;;22.70;36.53;101979.47;5032624;28;51234;-50
2022/02/10 17:56:30;;;;;;;;;4.75;4.00;;;;;22.74;36.16;101989.91;5032004;28;51253;-50
2022/02/10 17:58:55;;;;;;;;;4.25;3.25;;;;;22.81;36.67;101994.59;5032626;28;51835;-51
2022/02/10 18:01:21;;;;;;;;;6.75;4.25;;;;;22.85;36.88;102005.06;5032678;28;51363;-48
2022/02/10 18:03:47;;;;;;;;;4.75;4.75;;;;;22.87;36.29;102007.59;5030625;28;51053;-45
2022/02/10 18:08:47;;;;;;;;;5.50;3.50;;;;;22.89;36.39;102011.00;5023211;28;52240;-46
2022/02/10 18:13:52;;;;;;;;;3.00;2.00;;;;;22.86;36.67;102020.56;5028317;28;51248;-52
2022/02/10 18:16:23;;;;;;;;;6.50;4.00;;;;;22.87;36.77;102025.03;5030487;28;51308;-48
2022/02/10 18:18:54;;;;;;;;;5.75;3.25;;;;;22.87;36.22;102032.47;5029135;28;52714;-49
2022/02/10 18:24:29;;;;;;;;;5.75;5.00;;;;;22.86;37.00;102041.81;5030312;28;51203;-48
2022/02/10 18:29:17;;;;;;;;;4.25;4.25;;;;;22.83;36.72;102043.06;5030132;28;51601;-51
2022/02/10 18:35:37;;;;;;;;;8.00;2.00;;;;;22.89;36.32;102061.59;5024366;28;52458;-47
2022/02/10 19:09:35;;;;;;;;;7.00;4.00;;;;;22.69;35.81;102113.97;5029723;28;51992;-49
2022/02/10 19:12:04;;;;;;;;;3.00;1.75;;;;;22.66;35.55;102121.84;5026903;28;52055;-47
2022/02/10 19:14:34;;;;;;;;;3.75;3.00;;;;;22.64;35.62;102118.44;5026935;28;51364;-49
2022/02/10 19:17:00;;;;;;;;;3.00;2.00;;;;;22.62;35.98;102134.38;5028484;28;51167;-49
2022/02/10 19:19:25;;;;;;;;;5.75;3.00;;;;;22.60;35.94;102130.94;5025412;28;51064;-48
2022/02/10 19:21:51;;;;;;;;;3.00;3.00;;;;;22.61;36.14;102133.47;5031434;28;51088;-47
2022/02/10 19:24:17;;;;;;;;;2.50;2.50;;;;;22.64;35.92;102126.72;5030837;28;51473;-51
2022/02/10 19:26:50;;;;;;;;;1.25;1.25;;;;;22.67;36.05;102129.06;5031359;28;51470;-46
2022/02/10 19:29:16;;;;;;;;;4.75;2.75;;;;;22.68;35.54;102123.31;5027859;28;50953;-44
2022/02/10 19:31:41;;;;;;;;;4.00;4.00;;;;;22.69;35.41;102132.47;5028417;28;52617;-45
2022/02/10 19:34:07;;;;;;;;;3.00;3.00;;;;;22.68;35.90;102139.91;5031771;28;51138;-48
2022/02/10 19:36:33;;;;;;;;;2.75;2.75;;;;;22.66;35.97;102133.72;5035532;28;51076;-50
2022/02/10 19:38:59;;;;;;;;;2.75;2.00;;;;;22.65;35.62;102147.75;5032637;28;51106;-48
2022/02/10 19:41:30;;;;;;;;;2.00;2.00;;;;;22.63;36.37;102144.34;5031655;28;51360;-49
2022/02/10 19:43:56;;;;;;;;;3.25;3.25;;;;;22.60;36.18;102148.34;5036599;28;51210;-46
2022/02/10 19:46:21;;;;;;;;;4.75;1.75;;;;;22.58;35.96;102150.47;5035140;28;51393;-48
2022/02/10 19:48:48;;;;;;;;;2.75;2.75;;;;;22.55;36.26;102156.41;5028937;28;50966;-47
2022/02/10 19:51:13;;;;;;;;;3.00;2.25;;;;;22.54;35.67;102154.72;5030741;28;51810;-49
2022/02/10 19:53:39;;;;;;;;;2.50;2.50;;;;;22.52;36.08;102167.03;5029343;28;51475;-49
2022/02/10 19:56:04;;;;;;;;;4.00;2.00;;;;;22.50;36.22;102164.44;5033853;28;51123;-50
2022/02/10 19:58:31;;;;;;;;;2.50;1.75;;;;;22.49;35.76;102173.78;5031323;28;51667;-49
2022/02/10 20:00:59;;;;;;;;;1.50;1.50;;;;;22.48;36.16;102172.09;5030801;28;52735;-48
2022/02/10 20:03:26;;;;;;;;;3.75;2.00;;;;;22.52;36.05;102164.28;5031973;28;51458;-45
2022/02/10 20:05:52;;;;;;;;;2.00;1.00;;;;;22.55;36.02;102156.41;5029025;28;51510;-44
2022/02/10 20:08:20;;;;;;;;;2.00;2.00;;;;;22.59;35.84;102163.22;5022272;28;51142;-46
2022/02/10 20:10:45;;;;;;;;;1.00;1.00;;;;;22.60;35.32;102167.69;5030946;28;51854;-48
2022/02/10 20:13:16;;;;;;;;;3.00;2.50;;;;;22.61;35.69;102168.53;5029689;28;51195;-49
2022/02/10 20:15:46;;;;;;;;;3.00;3.00;;;;;22.58;35.72;102167.03;5030096;28;51442;-49
2022/02/10 20:18:14;;;;;;;;;2.75;2.50;;;;;22.56;35.36;102185.72;5030464;28;51251;-50
2022/02/10 20:20:41;;;;;;;;;2.25;2.25;;;;;22.55;35.72;102175.75;5030029;28;51878;-46
2022/02/10 20:23:07;;;;;;;;;2.75;2.00;;;;;22.52;35.74;102180.84;5020020;28;51256;-51
2022/02/10 20:25:33;;;;;;;;;3.75;3.50;;;;;22.51;35.93;102173.56;5031560;28;52761;-49
2022/02/10 20:27:58;;;;;;;;;1.50;1.50;;;;;22.49;35.96;102184.84;5023449;28;52931;-52
2022/02/10 20:30:24;;;;;;;;;1.00;1.00;;;;;22.47;35.47;102181.44;5034825;28;51145;-50
2022/02/10 20:32:50;;;;;;;;;4.50;2.25;;;;;22.44;35.91;102193.75;5032800;28;51445;-52
2022/02/10 20:35:17;;;;;;;;;3.75;2.00;;;;;22.39;36.01;102193.47;5038849;28;51154;-49
2022/02/10 20:37:43;;;;;;;;;1.50;0.50;;;;;22.36;35.75;102190.28;5032658;28;51505;-51
2022/02/10 20:40:09;;;;;;;;;2.00;1.00;;;;;22.33;35.77;102186.03;5031894;28;51643;-50
2022/02/10 20:42:35;;;;;;;;;2.75;1.25;;;;;22.33;35.98;102174.13;5029292;28;51142;-49
2022/02/10 20:45:01;;;;;;;;;1.50;1.50;;;;;22.35;35.71;102161.81;5031939;28;51186;-52
2022/02/10 20:47:27;;;;;;;;;4.00;3.00;;;;;22.39;35.67;102182.44;5036433;28;51322;-48
2022/02/10 20:49:52;;;;;;;;;2.50;2.50;;;;;22.41;35.21;102188.63;5033063;28;51926;-48
2022/02/10 20:52:18;;;;;;;;;2.25;2.25;;;;;22.42;35.83;102193.09;5035586;28;51162;-49
2022/02/10 20:54:45;;;;;;;;;2.25;2.25;;;;;22.41;35.74;102205.19;5039781;28;51148;-50
2022/02/10 20:57:11;;;;;;;;;2.50;2.50;;;;;22.37;35.42;102206.63;5037166;28;51205;-49
2022/02/10 20:59:39;;;;;;;;;1.75;1.00;;;;;22.34;35.75;102212.56;5031249;28;51307;-49
2022/02/10 21:02:19;;;;;;;;;3.00;3.00;;;;;22.31;35.39;102210.22;5031658;28;51520;-48
2022/02/10 21:05:00;;;;;;;;;1.50;1.50;;;;;22.27;35.59;102213.56;5014874;28;51485;-50
2022/02/10 21:07:36;;;;;;;;;4.25;3.50;;;;;22.23;35.76;102215.03;5036426;28;51216;-51
2022/02/10 21:10:05;;;;;;;;;2.25;2.25;;;;;22.17;35.15;102214.78;5032482;28;52090;-50
2022/02/10 21:12:36;;;;;;;;;3.00;2.00;;;;;22.14;35.50;102215.19;5036067;28;51100;-52
2022/02/10 21:15:04;;;;;;;;;0.75;0.75;;;;;22.10;35.29;102213.91;5029127;28;51215;-49
2022/02/10 21:17:30;;;;;;;;;3.00;3.00;;;;;22.07;35.29;102217.03;5028527;28;51610;-47
2022/02/10 21:20:00;;;;;;;;;3.50;3.50;;;;;22.06;35.59;102215.34;5030512;28;51444;-49
2022/02/10 21:22:26;;;;;;;;;3.25;3.25;;;;;22.03;35.61;102223.97;5030457;28;51596;-47
2022/02/10 21:25:02;;;;;;;;;5.00;4.50;;;;;22.01;35.62;102223.34;5021255;28;52257;-49
2022/02/10 21:27:32;;;;;;;;;4.50;3.00;;;;;21.99;35.16;102227.31;5025898;28;51610;-47
2022/02/10 21:30:04;;;;;;;;;5.75;3.00;;;;;21.96;35.52;102231.34;5030361;28;51872;-51
2022/02/10 21:32:32;;;;;;;;;3.75;2.00;;;;;21.94;35.07;102224.31;5030731;28;51810;-49
2022/02/10 21:38:01;;;;;;;;;3.25;2.50;;;;;21.87;35.09;102232.53;5030862;28;51043;-48
2022/02/10 21:47:11;;;;;;;;;2.75;2.00;;;;;21.78;35.45;102225.44;5034568;28;51138;-43
2022/02/10 21:52:37;;;;;;;;;2.00;2.00;;;;;21.74;34.95;102235.16;5034263;28;50940;-52
2022/02/10 22:00:13;;;;;;;;;5.75;3.25;;;;;21.60;35.03;102231.44;4991555;28;51221;-45
2022/02/10 22:10:59;;;;;;;;;3.00;2.00;;;;;21.49;35.08;102240.22;5034353;28;51124;-46
2022/02/10 22:19:01;;;;;;;;;3.00;3.00;;;;;21.40;35.41;102242.25;5033492;28;51244;-50
2022/02/10 22:21:37;;;;;;;;;1.50;1.50;;;;;21.39;35.44;102247.97;5034057;28;51176;-50
2022/02/10 22:24:07;;;;;;;;;5.00;1.75;;;;;21.36;34.96;102253.84;5026882;28;52617;-46
2022/02/10 22:26:33;;;;;;;;;2.00;2.00;;;;;21.33;35.27;102250.44;5033860;28;51272;-45
2022/02/10 22:36:24;;;;;;;;;1.25;1.25;;;;;21.26;35.44;102262.44;5028639;28;51260;-47
2022/02/10 22:38:53;;;;;;;;;1.25;1.00;;;;;21.25;34.99;102260.69;5033945;28;51077;-45
2022/02/10 22:41:20;;;;;;;;;1.25;1.25;;;;;21.23;35.07;102265.53;5034758;28;52226;-46
2022/02/10 22:43:48;;;;;;;;;2.00;1.75;;;;;21.21;35.28;102265.72;5034605;28;51188;-49
2022/02/10 22:46:15;;;;;;;;;3.00;2.50;;;;;21.21;35.13;102270.41;5034720;28;51319;-49
2022/02/10 22:48:43;;;;;;;;;2.50;2.50;;;;;21.20;35.58;102268.69;5034593;28;52313;-50
2022/02/10 22:51:09;;;;;;;;;3.50;3.25;;;;;21.17;35.47;102266.31;5033967;28;51361;-49
2022/02/10 22:53:34;;;;;;;;;3.25;2.00;;;;;21.15;35.09;102269.25;5028740;28;51967;-47
2022/02/10 22:55:59;;;;;;;;;2.00;2.00;;;;;21.14;35.00;102266.69;5034949;28;51227;-49
2022/02/10 22:58:25;;;;;;;;;4.00;3.00;;;;;21.11;35.24;102265.19;5034610;28;51497;-47
2022/02/10 23:00:51;;;;;;;;;2.25;2.25;;;;;21.10;35.10;102271.75;5027081;28;51173;-47
2022/02/10 23:03:20;;;;;;;;;3.50;2.00;;;;;21.09;35.46;102267.28;5040960;28;51711;-49
2022/02/10 23:05:47;;;;;;;;;2.75;2.50;;;;;21.08;35.51;102275.75;5033896;28;51126;-48
2022/02/10 23:08:12;;;;;;;;;2.50;2.50;;;;;21.06;35.23;102275.94;5037341;28;51169;-49
2022/02/10 23:10:48;;;;;;;;;3.50;2.00;;;;;21.04;35.20;102283.53;5037363;28;51002;-48
2022/02/10 23:13:28;;;;;;;;;4.00;2.25;;;;;21.02;35.21;102289.22;5034306;28;51867;-47
2022/02/10 23:15:55;;;;;;;;;2.00;2.00;;;;;20.99;35.64;102286.00;5037407;28;51283;-46
2022/02/10 23:18:23;;;;;;;;;2.00;2.00;;;;;20.98;35.20;102300.84;5037729;28;51124;-44
2022/02/10 23:20:51;;;;;;;;;2.75;2.75;;;;;20.97;35.03;102293.63;5037796;28;51332;-46
2022/02/10 23:23:20;;;;;;;;;3.25;2.75;;;;;20.93;35.03;102301.38;5037411;28;51652;-48
2022/02/10 23:25:49;;;;;;;;;3.50;3.50;;;;;20.92;35.44;102305.19;5037254;28;51099;-50
2022/02/10 23:28:23;;;;;;;;;2.50;2.50;;;;;20.90;35.05;102310.03;5037926;28;51049;-49
2022/02/10 23:30:49;;;;;;;;;4.00;4.00;;;;;20.89;35.15;102313.00;5037809;28;51201;-50
2022/02/10 23:33:24;;;;;;;;;3.00;3.00;;;;;20.86;35.34;102316.13;5037854;28;51846;-48
2022/02/10 23:43:50;;;;;;;;;4.25;4.25;;;;;20.79;35.55;102326.19;5037356;28;51140;-48
2022/02/10 23:46:16;;;;;;;;;4.00;3.25;;;;;20.78;35.17;102329.97;5037439;28;51200;-50
2022/02/10 23:48:42;;;;;;;;;6.00;4.25;;;;;20.76;35.14;102324.66;5037580;28;51173;-46
2022/02/10 23:51:07;;;;;;;;;2.00;2.00;;;;;20.74;35.21;102338.63;5037340;28;51344;-48
2022/02/10 23:53:34;;;;;;;;;5.00;4.50;;;;;20.73;35.30;102336.88;5037117;28;51815;-48
2022/02/10 23:56:03;;;;;;;;;4.00;2.75;;;;;20.70;35.23;102331.78;5037059;28;51089;-47
